createdAt,value
2019-04-14T00:00:59.510Z,64.90
2019-04-14T00:01:58.812Z,62.70
2019-04-14T00:02:58.460Z,61.90
2019-04-14T00:03:58.709Z,71.40
2019-04-14T00:04:59.439Z,60.50
2019-04-14T00:05:58.421Z,70.90
2019-04-14T00:06:59.165Z,64.10
2019-04-14T00:07:58.385Z,64.50
2019-04-14T00:08:58.655Z,69.70
2019-04-14T00:09:58.531Z,68.90
2019-04-14T00:10:59.416Z,66.30
2019-04-14T00:11:59.104Z,65.40
2019-04-14T00:12:58.419Z,66.00
2019-04-14T00:13:58.860Z,69.10
2019-04-14T00:14:58.358Z,63.00
2019-04-14T00:15:58.894Z,65.50
2019-04-14T00:16:59.565Z,63.40
2019-04-14T00:17:59.000Z,66.70
2019-04-14T00:18:58.351Z,66.60
2019-04-14T00:19:58.824Z,64.30
2019-04-14T00:20:58.277Z,75.00
2019-04-14T00:21:58.680Z,67.10
2019-04-14T00:22:58.299Z,68.90
2019-04-14T00:23:58.829Z,61.70
2019-04-14T00:24:59.738Z,67.30
2019-04-14T00:25:58.649Z,68.30
2019-04-14T00:26:59.465Z,71.90
2019-04-14T00:27:58.614Z,65.00
2019-04-14T00:28:58.217Z,66.10
2019-04-14T00:29:58.966Z,63.10
2019-04-14T00:30:58.236Z,67.50
2019-04-14T00:31:58.780Z,64.80
2019-04-14T00:32:59.390Z,64.20
2019-04-14T00:33:58.595Z,62.40
2019-04-14T00:34:59.287Z,61.40
2019-04-14T00:35:58.123Z,69.20
2019-04-14T00:36:58.851Z,70.60
2019-04-14T00:37:59.464Z,70.00
2019-04-14T00:38:58.489Z,64.00
2019-04-14T00:39:58.035Z,71.40
2019-04-14T00:40:58.338Z,70.80
2019-04-14T00:42:01.375Z,62.70
2019-04-14T00:42:58.252Z,61.20
2019-04-14T00:43:59.157Z,66.70
2019-04-14T00:44:58.135Z,68.60
2019-04-14T00:46:00.536Z,70.20
2019-04-14T00:46:58.238Z,61.80
2019-04-14T00:48:03.417Z,64.10
2019-04-14T00:48:58.914Z,67.60
2019-04-14T00:49:57.953Z,61.20
2019-04-14T00:50:58.150Z,65.10
2019-04-14T00:51:59.197Z,76.30
2019-04-14T00:52:58.842Z,64.50
2019-04-14T00:53:58.055Z,66.00
2019-04-14T00:54:58.698Z,59.40
2019-04-14T00:55:57.922Z,64.40
2019-04-14T00:56:58.486Z,67.00
2019-04-14T00:57:57.908Z,65.40
2019-04-14T00:58:58.253Z,66.00
2019-04-14T00:59:57.929Z,63.40
2019-04-14T01:00:58.065Z,64.60
2019-04-14T01:01:59.077Z,67.20
2019-04-14T01:02:58.015Z,64.30
2019-04-14T01:03:59.073Z,67.80
2019-04-14T01:04:57.770Z,63.10
2019-04-14T01:05:58.987Z,67.10
2019-04-14T01:06:57.732Z,67.50
2019-04-14T01:07:58.764Z,66.60
2019-04-14T01:08:57.714Z,64.90
2019-04-14T01:09:57.782Z,68.60
2019-04-14T01:10:58.358Z,68.90
2019-04-14T01:11:57.823Z,70.20
2019-04-14T01:12:58.160Z,69.30
2019-04-14T01:13:57.721Z,66.20
2019-04-14T01:14:58.214Z,63.30
2019-04-14T01:16:05.240Z,74.80
2019-04-14T01:16:58.643Z,69.40
2019-04-14T01:18:58.658Z,74.20
2019-04-14T01:19:57.646Z,68.90
2019-04-14T01:20:57.876Z,72.60
2019-04-14T01:21:58.788Z,72.30
2019-04-14T01:22:57.550Z,67.20
2019-04-14T01:24:59.898Z,61.30
2019-04-14T01:25:58.455Z,64.40
2019-04-14T01:26:57.538Z,68.40
2019-04-14T01:28:59.335Z,61.60
2019-04-14T01:29:58.168Z,64.60
2019-04-14T01:30:57.473Z,67.60
2019-04-14T01:31:57.914Z,64.90
2019-04-14T01:32:57.448Z,64.60
2019-04-14T01:33:57.640Z,68.50
2019-04-14T01:34:57.426Z,69.40
2019-04-14T01:35:57.455Z,63.90
2019-04-14T01:36:58.530Z,66.70
2019-04-14T01:37:57.480Z,65.00
2019-04-14T01:38:58.136Z,74.70
2019-04-14T01:39:58.596Z,75.90
2019-04-14T01:40:57.765Z,74.40
2019-04-14T01:41:58.573Z,75.00
2019-04-14T01:42:57.364Z,70.00
2019-04-14T01:43:58.250Z,76.80
2019-04-14T01:44:57.317Z,71.80
2019-04-14T01:46:07.200Z,78.10
2019-04-14T01:46:58.827Z,70.90
2019-04-14T01:47:57.577Z,80.80
2019-04-14T01:48:58.529Z,73.40
2019-04-14T01:49:57.421Z,74.00
2019-04-14T01:50:58.328Z,74.10
2019-04-14T01:51:57.379Z,80.00
2019-04-14T01:52:57.268Z,77.20
2019-04-14T01:53:57.514Z,75.30
2019-04-14T01:54:58.268Z,77.30
2019-04-14T01:55:57.283Z,77.90
2019-04-14T01:56:58.120Z,83.60
2019-04-14T01:57:57.348Z,85.70
2019-04-14T01:58:57.943Z,76.00
2019-04-14T01:59:57.205Z,76.10
2019-04-14T02:00:57.586Z,86.10
2019-04-14T02:01:57.241Z,79.20
2019-04-14T02:02:57.613Z,85.10
2019-04-14T02:03:58.406Z,81.40
2019-04-14T02:04:57.560Z,88.30
2019-04-14T02:05:58.288Z,87.30
2019-04-14T02:06:57.420Z,79.50
2019-04-14T02:07:57.980Z,86.90
2019-04-14T02:08:57.093Z,89.20
2019-04-14T02:09:57.559Z,94.00
2019-04-14T02:10:57.046Z,89.90
2019-04-14T02:12:58.489Z,89.30
2019-04-14T02:13:57.254Z,94.90
2019-04-14T02:14:58.040Z,90.20
2019-04-14T02:15:57.385Z,91.10
2019-04-14T02:16:59.532Z,95.60
2019-04-14T02:17:57.059Z,102.80
2019-04-14T02:18:58.475Z,95.80
2019-04-14T02:19:57.038Z,97.90
2019-04-14T02:20:57.902Z,102.70
2019-04-14T02:21:58.343Z,102.00
2019-04-14T02:22:57.347Z,99.80
2019-04-14T02:24:59.161Z,103.50
2019-04-14T02:25:57.961Z,92.60
2019-04-14T02:26:57.083Z,100.80
2019-04-14T02:27:57.979Z,98.20
2019-04-14T02:28:57.151Z,100.10
2019-04-14T02:29:58.122Z,97.80
2019-04-14T02:31:10.470Z,93.80
2019-04-14T02:32:27.287Z,93.00
2019-04-14T02:33:33.769Z,85.30
2019-04-14T02:34:41.609Z,99.30
2019-04-14T02:35:32.704Z,87.30
2019-04-14T02:36:32.652Z,91.60
2019-04-14T02:39:42.065Z,93.20
2019-04-14T02:40:28.658Z,99.50
2019-04-14T02:41:33.738Z,98.00
2019-04-14T02:42:36.801Z,94.60
2019-04-14T02:43:29.359Z,90.70
2019-04-14T02:45:26.833Z,96.90
2019-04-14T02:46:26.358Z,106.20
2019-04-14T02:47:47.281Z,92.50
2019-04-14T02:48:38.195Z,98.50
2019-04-14T02:49:27.419Z,90.10
2019-04-14T02:50:28.009Z,95.50
2019-04-14T02:52:29.994Z,97.20
2019-04-14T02:53:32.539Z,107.10
2019-04-14T02:54:48.034Z,101.30
2019-04-14T02:55:23.685Z,89.30
2019-04-14T02:56:36.626Z,97.90
2019-04-14T02:58:32.717Z,97.00
2019-04-14T02:59:23.008Z,109.10
2019-04-14T03:00:24.061Z,89.10
2019-04-14T03:01:38.737Z,85.60
2019-04-14T03:02:38.559Z,94.60
2019-04-14T03:04:35.173Z,88.60
2019-04-14T03:05:26.707Z,92.40
2019-04-14T03:06:17.857Z,97.90
2019-04-14T03:07:40.287Z,101.00
2019-04-14T03:08:25.752Z,101.80
2019-04-14T03:09:28.890Z,93.80
2019-04-14T03:10:28.114Z,103.80
2019-04-14T03:11:25.800Z,94.40
2019-04-14T03:12:24.837Z,96.20
2019-04-14T03:14:23.324Z,101.80
2019-04-14T03:15:25.647Z,99.80
2019-04-14T03:16:33.005Z,91.20
2019-04-14T03:17:31.501Z,98.80
2019-04-14T03:19:29.912Z,97.60
2019-04-14T03:21:34.813Z,93.90
2019-04-14T03:22:33.101Z,101.60
2019-04-14T03:23:30.851Z,97.40
2019-04-14T03:24:35.888Z,103.90
2019-04-14T03:25:09.745Z,95.90
2019-04-14T03:26:17.682Z,92.60
2019-04-14T03:27:39.942Z,90.00
2019-04-14T03:28:27.205Z,88.60
2019-04-14T03:29:26.814Z,110.70
2019-04-14T03:30:46.013Z,84.70
2019-04-14T03:31:49.514Z,90.70
2019-04-14T03:32:48.119Z,83.00
2019-04-14T03:35:58.573Z,91.90
2019-04-14T03:37:45.132Z,79.00
2019-04-14T03:38:24.589Z,82.10
2019-04-14T03:39:27.238Z,88.90
2019-04-14T03:40:28.057Z,87.50
2019-04-14T03:42:29.302Z,86.60
2019-04-14T03:43:25.237Z,84.00
2019-04-14T03:44:28.633Z,79.50
2019-04-14T03:45:25.751Z,87.80
2019-04-14T03:46:25.366Z,77.20
2019-04-14T03:47:25.486Z,93.00
2019-04-14T03:48:45.266Z,88.90
2019-04-14T03:49:26.290Z,84.50
2019-04-14T03:50:21.229Z,82.70
2019-04-14T03:51:44.608Z,87.50
2019-04-14T03:52:22.249Z,87.70
2019-04-14T03:53:27.651Z,86.40
2019-04-14T03:54:15.609Z,92.30
2019-04-14T03:56:02.434Z,95.30
2019-04-14T03:56:57.651Z,91.80
2019-04-14T03:58:57.689Z,95.90
2019-04-14T03:59:56.369Z,93.60
2019-04-14T04:00:55.914Z,88.20
2019-04-14T04:01:56.571Z,88.00
2019-04-14T04:02:55.852Z,86.80
2019-04-14T04:03:56.447Z,91.10
2019-04-14T04:04:55.834Z,84.40
2019-04-14T04:05:56.429Z,105.60
2019-04-14T04:06:55.845Z,95.60
2019-04-14T04:07:56.061Z,86.70
2019-04-14T04:08:55.791Z,95.80
2019-04-14T04:09:56.216Z,103.20
2019-04-14T04:10:55.795Z,103.20
2019-04-14T04:11:56.830Z,90.60
2019-04-14T04:12:55.764Z,91.00
2019-04-14T04:13:56.378Z,93.10
2019-04-14T04:14:55.740Z,97.90
2019-04-14T04:15:56.226Z,92.70
2019-04-14T04:16:55.731Z,92.70
2019-04-14T04:17:55.919Z,96.30
2019-04-14T04:19:02.705Z,91.40
2019-04-14T04:19:57.768Z,94.70
2019-04-14T04:20:56.638Z,96.40
2019-04-14T04:21:55.659Z,96.30
2019-04-14T04:22:56.561Z,89.20
2019-04-14T04:23:55.644Z,89.80
2019-04-14T04:25:57.274Z,91.90
2019-04-14T04:26:56.736Z,95.90
2019-04-14T04:27:56.688Z,91.40
2019-04-14T04:28:56.235Z,99.10
2019-04-14T04:29:55.571Z,85.80
2019-04-14T04:30:55.934Z,88.40
2019-04-14T04:31:56.751Z,93.90
2019-04-14T04:32:55.897Z,85.70
2019-04-14T04:33:56.537Z,96.30
2019-04-14T04:34:55.650Z,91.90
2019-04-14T04:35:56.465Z,106.70
2019-04-14T04:36:55.684Z,91.70
2019-04-14T04:37:56.339Z,87.80
2019-04-14T04:38:55.556Z,86.20
2019-04-14T04:39:56.148Z,94.50
2019-04-14T04:41:56.520Z,105.80
2019-04-14T04:43:56.473Z,94.30
2019-04-14T04:44:55.488Z,95.10
2019-04-14T04:45:55.929Z,101.10
2019-04-14T04:46:55.531Z,95.20
2019-04-14T04:47:55.653Z,92.60
2019-04-14T04:49:57.500Z,93.30
2019-04-14T04:50:56.401Z,86.30
2019-04-14T04:51:55.332Z,97.90
2019-04-14T04:52:56.194Z,102.60
2019-04-14T04:53:55.314Z,85.30
2019-04-14T04:54:55.899Z,91.20
2019-04-14T04:55:55.293Z,92.80
2019-04-14T04:57:56.660Z,91.30
2019-04-14T04:58:55.390Z,88.40
2019-04-14T04:59:56.146Z,97.30
2019-04-14T05:00:57.354Z,92.10
2019-04-14T05:01:55.907Z,94.00
2019-04-14T05:02:55.336Z,98.10
2019-04-14T05:03:55.712Z,93.60
2019-04-14T05:04:55.324Z,94.00
2019-04-14T05:05:55.743Z,100.70
2019-04-14T05:06:55.241Z,96.50
2019-04-14T05:07:55.468Z,98.00
2019-04-14T05:08:55.290Z,98.00
2019-04-14T05:09:55.601Z,86.10
2019-04-14T05:11:56.724Z,88.60
2019-04-14T05:12:56.418Z,94.20
2019-04-14T05:13:55.350Z,93.30
2019-04-14T05:14:55.184Z,89.00
2019-04-14T05:15:55.301Z,97.30
2019-04-14T05:16:55.199Z,99.80
2019-04-14T05:17:55.950Z,90.20
2019-04-14T05:18:55.256Z,96.70
2019-04-14T05:19:56.136Z,91.20
2019-04-14T05:20:55.468Z,94.40
2019-04-14T05:21:55.949Z,99.50
2019-04-14T05:22:55.094Z,87.80
2019-04-14T05:23:56.047Z,87.70
2019-04-14T05:24:55.074Z,94.40
2019-04-14T05:25:56.089Z,89.80
2019-04-14T05:26:55.077Z,99.50
2019-04-14T05:27:55.842Z,88.30
2019-04-14T05:28:57.012Z,86.40
2019-04-14T05:29:55.863Z,90.40
2019-04-14T05:30:55.025Z,86.40
2019-04-14T05:31:55.542Z,89.70
2019-04-14T05:32:55.029Z,82.60
2019-04-14T05:33:55.478Z,92.30
2019-04-14T05:34:54.964Z,92.80
2019-04-14T05:35:55.324Z,95.60
2019-04-14T05:36:54.948Z,92.20
2019-04-14T05:37:55.089Z,83.30
2019-04-14T05:38:55.961Z,88.10
2019-04-14T05:39:54.888Z,83.10
2019-04-14T05:40:56.109Z,85.60
2019-04-14T05:42:04.130Z,85.60
2019-04-14T05:42:55.930Z,80.60
2019-04-14T05:43:58.908Z,80.60
2019-04-14T05:44:55.874Z,86.10
2019-04-14T05:45:54.798Z,81.60
2019-04-14T05:46:55.732Z,85.00
2019-04-14T05:47:54.823Z,73.60
2019-04-14T05:48:55.774Z,70.70
2019-04-14T05:49:56.536Z,81.10
2019-04-14T05:50:55.484Z,75.00
2019-04-14T05:51:54.730Z,75.80
2019-04-14T05:52:55.700Z,76.10
2019-04-14T05:53:54.764Z,70.10
2019-04-14T05:54:55.798Z,78.10
2019-04-14T05:55:54.810Z,73.60
2019-04-14T05:56:55.752Z,77.90
2019-04-14T05:57:54.690Z,71.30
2019-04-14T05:58:55.690Z,74.10
2019-04-14T05:59:54.845Z,81.30
2019-04-14T06:00:55.736Z,74.10
2019-04-14T06:01:54.717Z,73.70
2019-04-14T06:02:55.176Z,71.90
2019-04-14T06:03:56.017Z,67.00
2019-04-14T06:04:55.059Z,67.70
2019-04-14T06:05:54.791Z,66.60
2019-04-14T06:06:54.618Z,66.10
2019-04-14T06:07:55.602Z,66.30
2019-04-14T06:08:54.562Z,65.80
2019-04-14T06:09:54.928Z,62.30
2019-04-14T06:10:54.666Z,62.40
2019-04-14T06:11:54.748Z,70.10
2019-04-14T06:12:54.498Z,69.00
2019-04-14T06:13:55.039Z,69.90
2019-04-14T06:14:54.534Z,65.00
2019-04-14T06:16:09.102Z,69.20
2019-04-14T06:16:54.566Z,67.60
2019-04-14T06:18:15.528Z,69.60
2019-04-14T06:18:54.502Z,60.20
2019-04-14T06:19:54.894Z,54.90
2019-04-14T06:20:54.428Z,65.50
2019-04-14T06:21:54.663Z,62.60
2019-04-14T06:22:54.549Z,65.80
2019-04-14T06:24:15.445Z,60.80
2019-04-14T06:24:54.506Z,60.70
2019-04-14T06:26:16.183Z,62.90
2019-04-14T06:26:54.490Z,63.70
2019-04-14T06:28:15.501Z,60.30
2019-04-14T06:28:54.429Z,60.70
2019-04-14T06:30:15.429Z,62.10
2019-04-14T06:30:54.484Z,59.20
2019-04-14T06:31:54.395Z,55.90
2019-04-14T06:32:54.263Z,58.10
2019-04-14T06:33:54.298Z,60.40
2019-04-14T06:34:54.239Z,56.70
2019-04-14T06:35:54.350Z,58.50
2019-04-14T06:36:54.248Z,56.90
2019-04-14T06:37:54.390Z,61.70
2019-04-14T06:38:54.216Z,54.10
2019-04-14T06:39:54.252Z,58.30
2019-04-14T06:40:54.178Z,58.60
2019-04-14T06:41:54.285Z,56.60
2019-04-14T06:42:54.165Z,53.60
2019-04-14T06:43:54.277Z,56.40
2019-04-14T06:44:54.130Z,58.50
2019-04-14T06:45:54.183Z,55.20
2019-04-14T06:46:54.152Z,50.80
2019-04-14T06:47:54.211Z,56.10
2019-04-14T06:48:54.091Z,49.20
2019-04-14T06:49:54.104Z,51.40
2019-04-14T06:50:54.075Z,55.00
2019-04-14T06:51:54.162Z,51.10
2019-04-14T06:52:54.047Z,56.40
2019-04-14T06:53:54.134Z,46.70
2019-04-14T06:54:54.044Z,48.10
2019-04-14T06:55:55.117Z,48.90
2019-04-14T06:56:54.044Z,51.60
2019-04-14T06:57:54.063Z,47.60
2019-04-14T06:58:53.982Z,49.30
2019-04-14T06:59:54.076Z,49.10
2019-04-14T07:00:53.973Z,44.50
2019-04-14T07:01:54.031Z,44.80
2019-04-14T07:02:53.949Z,44.30
2019-04-14T07:03:54.000Z,44.40
2019-04-14T07:04:53.921Z,44.70
2019-04-14T07:05:54.014Z,44.40
2019-04-14T07:06:53.932Z,41.20
2019-04-14T07:07:57.128Z,42.60
2019-04-14T07:08:53.883Z,42.80
2019-04-14T07:09:53.941Z,46.70
2019-04-14T07:10:53.900Z,45.00
2019-04-14T07:11:54.059Z,44.50
2019-04-14T07:12:53.848Z,44.70
2019-04-14T07:13:53.872Z,41.10
2019-04-14T07:14:53.810Z,39.70
2019-04-14T07:15:53.888Z,42.30
2019-04-14T07:16:58.467Z,43.10
2019-04-14T07:17:53.826Z,38.10
2019-04-14T07:18:53.800Z,39.80
2019-04-14T07:20:01.883Z,39.40
2019-04-14T07:20:54.765Z,35.80
2019-04-14T07:21:53.752Z,35.60
2019-04-14T07:22:53.749Z,37.50
2019-04-14T07:24:54.766Z,38.10
2019-04-14T07:25:53.719Z,39.30
2019-04-14T07:26:53.685Z,35.90
2019-04-14T07:27:53.714Z,40.20
2019-04-14T07:28:56.908Z,40.90
2019-04-14T07:29:53.674Z,35.70
2019-04-14T07:30:53.636Z,34.10
2019-04-14T07:31:53.632Z,32.60
2019-04-14T07:32:53.648Z,33.70
2019-04-14T07:33:53.642Z,36.80
2019-04-14T07:34:53.600Z,35.40
2019-04-14T07:35:53.591Z,35.10
2019-04-14T07:36:53.578Z,34.90
2019-04-14T07:37:53.611Z,38.00
2019-04-14T07:38:53.552Z,35.20
2019-04-14T07:40:54.585Z,34.80
2019-04-14T07:41:53.536Z,34.20
2019-04-14T07:42:53.536Z,35.60
2019-04-14T07:43:53.518Z,34.60
2019-04-14T07:44:53.483Z,32.10
2019-04-14T07:45:53.484Z,30.90
2019-04-14T07:46:53.467Z,34.20
2019-04-14T07:47:53.526Z,33.40
2019-04-14T07:48:53.487Z,31.70
2019-04-14T07:49:53.488Z,32.90
2019-04-14T07:50:53.433Z,33.00
2019-04-14T07:51:53.488Z,34.00
2019-04-14T07:52:53.429Z,30.60
2019-04-14T07:53:53.421Z,28.40
2019-04-14T07:54:53.374Z,31.60
2019-04-14T07:56:54.410Z,30.70
2019-04-14T07:57:53.386Z,31.70
2019-04-14T07:58:53.368Z,31.80
2019-04-14T07:59:53.389Z,33.50
2019-04-14T08:00:53.322Z,28.00
2019-04-14T08:01:53.310Z,30.90
2019-04-14T08:02:53.326Z,35.00
2019-04-14T08:03:53.293Z,31.30
2019-04-14T08:04:53.303Z,32.00
2019-04-14T08:05:53.276Z,32.20
2019-04-14T08:06:53.257Z,30.40
2019-04-14T08:07:53.245Z,32.90
2019-04-14T08:08:53.221Z,30.30
2019-04-14T08:09:53.224Z,31.40
2019-04-14T08:10:53.235Z,27.10
2019-04-14T08:11:53.194Z,35.30
2019-04-14T08:12:53.187Z,28.10
2019-04-14T08:13:53.211Z,30.40
2019-04-14T08:14:53.159Z,29.50
2019-04-14T08:15:53.156Z,29.10
2019-04-14T08:16:53.145Z,28.30
2019-04-14T08:17:53.133Z,33.60
2019-04-14T08:18:53.178Z,31.30
2019-04-14T08:19:53.112Z,28.20
2019-04-14T08:20:53.105Z,27.20
2019-04-14T08:21:53.092Z,31.00
2019-04-14T08:22:53.075Z,29.10
2019-04-14T08:23:53.083Z,26.40
2019-04-14T08:24:53.111Z,29.10
2019-04-14T08:25:53.094Z,31.20
2019-04-14T08:26:53.045Z,29.70
2019-04-14T08:27:53.037Z,27.20
2019-04-14T08:28:53.014Z,26.20
2019-04-14T08:29:53.042Z,27.00
2019-04-14T08:30:53.019Z,30.30
2019-04-14T08:31:52.981Z,28.30
2019-04-14T08:32:52.966Z,27.40
2019-04-14T08:33:52.988Z,27.00
2019-04-14T08:34:52.984Z,27.90
2019-04-14T08:35:52.934Z,26.90
2019-04-14T08:36:52.925Z,25.80
2019-04-14T08:37:52.922Z,29.90
2019-04-14T08:38:52.943Z,26.80
2019-04-14T08:39:52.924Z,28.10
2019-04-14T08:40:52.878Z,26.00
2019-04-14T08:41:52.880Z,25.50
2019-04-14T08:42:52.894Z,26.10
2019-04-14T08:43:52.871Z,27.10
2019-04-14T08:44:52.861Z,26.90
2019-04-14T08:45:52.835Z,28.10
2019-04-14T08:46:52.816Z,24.80
2019-04-14T08:47:52.816Z,25.20
2019-04-14T08:48:52.794Z,27.80
2019-04-14T08:49:52.840Z,25.50
2019-04-14T08:50:52.781Z,26.30
2019-04-14T08:51:52.810Z,24.90
2019-04-14T08:52:52.754Z,24.50
2019-04-14T08:53:52.761Z,22.40
2019-04-14T08:54:52.769Z,25.50
2019-04-14T08:55:52.732Z,26.10
2019-04-14T08:56:52.707Z,27.40
2019-04-14T08:58:53.735Z,22.90
2019-04-14T08:59:52.717Z,24.00
2019-04-14T09:00:52.666Z,20.50
2019-04-14T09:01:52.671Z,24.70
2019-04-14T09:02:52.645Z,26.50
2019-04-14T09:03:52.640Z,22.70
2019-04-14T09:04:52.622Z,25.90
2019-04-14T09:05:52.647Z,24.40
2019-04-14T09:06:52.616Z,24.50
2019-04-14T09:07:52.609Z,24.20
2019-04-14T09:08:52.623Z,23.70
2019-04-14T09:09:52.579Z,22.70
2019-04-14T09:10:52.681Z,24.40
2019-04-14T09:11:53.590Z,22.80
2019-04-14T09:12:52.563Z,24.40
2019-04-14T09:13:52.554Z,22.40
2019-04-14T09:14:57.341Z,28.00
2019-04-14T09:15:53.532Z,23.00
2019-04-14T09:16:52.489Z,21.10
2019-04-14T09:17:52.490Z,22.70
2019-04-14T09:18:53.737Z,20.70
2019-04-14T09:19:52.488Z,20.00
2019-04-14T09:20:52.916Z,23.70
2019-04-14T09:21:52.451Z,23.30
2019-04-14T09:22:52.434Z,22.80
2019-04-14T09:24:53.459Z,21.20
2019-04-14T09:25:53.454Z,22.00
2019-04-14T09:26:52.402Z,22.60
2019-04-14T09:27:52.400Z,23.10
2019-04-14T09:28:52.382Z,23.50
2019-04-14T09:29:52.602Z,21.50
2019-04-14T09:30:52.364Z,23.20
2019-04-14T09:31:52.368Z,22.70
2019-04-14T09:32:52.319Z,22.60
2019-04-14T09:33:52.319Z,23.90
2019-04-14T09:34:52.305Z,21.70
2019-04-14T09:35:52.303Z,21.10
2019-04-14T09:36:52.312Z,20.70
2019-04-14T09:37:52.273Z,21.10
2019-04-14T09:38:52.251Z,19.90
2019-04-14T09:39:52.249Z,20.80
2019-04-14T09:40:52.261Z,22.40
2019-04-14T09:41:52.261Z,21.00
2019-04-14T09:42:52.238Z,20.40
2019-04-14T09:43:52.211Z,23.70
2019-04-14T09:44:52.197Z,20.50
2019-04-14T09:45:52.199Z,20.60
2019-04-14T09:46:52.222Z,20.10
2019-04-14T09:47:52.169Z,20.30
2019-04-14T09:48:52.141Z,19.20
2019-04-14T09:49:52.131Z,20.70
2019-04-14T09:51:03.908Z,23.80
2019-04-14T09:51:53.168Z,23.70
2019-04-14T09:52:52.112Z,19.50
2019-04-14T09:53:52.104Z,21.70
2019-04-14T09:54:52.087Z,19.90
2019-04-14T09:55:52.064Z,19.50
2019-04-14T09:56:52.086Z,22.10
2019-04-14T09:57:52.106Z,21.30
2019-04-14T09:58:52.048Z,21.60
2019-04-14T09:59:52.032Z,21.30
2019-04-14T10:00:52.048Z,20.90
2019-04-14T10:01:52.032Z,21.80
2019-04-14T10:02:52.028Z,19.80
2019-04-14T10:03:52.215Z,22.10
2019-04-14T10:05:53.046Z,22.60
2019-04-14T10:06:52.293Z,19.20
2019-04-14T10:07:52.622Z,19.80
2019-04-14T10:08:52.041Z,19.00
2019-04-14T10:09:52.156Z,21.10
2019-04-14T10:10:52.117Z,22.00
2019-04-14T10:11:56.001Z,20.50
2019-04-14T10:12:51.924Z,20.90
2019-04-14T10:13:51.863Z,19.70
2019-04-14T10:14:51.864Z,22.60
2019-04-14T10:15:51.857Z,20.50
2019-04-14T10:16:51.849Z,21.00
2019-04-14T10:17:51.863Z,19.70
2019-04-14T10:18:51.817Z,21.00
2019-04-14T10:19:51.809Z,22.70
2019-04-14T10:20:51.802Z,21.10
2019-04-14T10:21:51.788Z,20.00
2019-04-14T10:22:51.816Z,21.90
2019-04-14T10:23:51.757Z,19.40
2019-04-14T10:24:51.752Z,22.00
2019-04-14T10:25:51.734Z,20.30
2019-04-14T10:26:51.737Z,21.40
2019-04-14T10:27:51.759Z,19.00
2019-04-14T10:28:51.709Z,20.70
2019-04-14T10:29:51.703Z,21.70
2019-04-14T10:30:51.690Z,21.50
2019-04-14T10:31:51.689Z,21.50
2019-04-14T10:32:51.682Z,21.50
2019-04-14T10:33:51.673Z,22.60
2019-04-14T10:34:51.677Z,21.50
2019-04-14T10:35:51.625Z,21.80
2019-04-14T10:36:51.621Z,23.20
2019-04-14T10:37:51.606Z,30.00
2019-04-14T10:38:51.696Z,21.10
2019-04-14T10:39:51.586Z,24.60
2019-04-14T10:40:51.571Z,22.80
2019-04-14T10:41:51.570Z,24.90
2019-04-14T10:42:51.554Z,25.90
2019-04-14T10:43:51.589Z,22.40
2019-04-14T10:44:51.547Z,20.10
2019-04-14T10:45:51.526Z,21.20
2019-04-14T10:46:51.522Z,21.60
2019-04-14T10:47:51.513Z,21.00
2019-04-14T10:48:51.602Z,22.20
2019-04-14T10:49:51.493Z,21.10
2019-04-14T10:50:51.475Z,21.80
2019-04-14T10:51:51.450Z,20.20
2019-04-14T10:52:51.448Z,23.50
2019-04-14T10:53:51.454Z,21.10
2019-04-14T10:54:51.431Z,24.40
2019-04-14T10:55:51.424Z,21.40
2019-04-14T10:56:51.405Z,21.30
2019-04-14T10:57:51.384Z,23.90
2019-04-14T10:58:51.503Z,24.60
2019-04-14T10:59:51.398Z,23.60
2019-04-14T11:00:51.360Z,21.20
2019-04-14T11:01:51.341Z,20.90
2019-04-14T11:02:51.337Z,23.30
2019-04-14T11:03:51.322Z,24.40
2019-04-14T11:04:51.382Z,22.30
2019-04-14T11:05:51.311Z,25.30
2019-04-14T11:06:51.293Z,23.20
2019-04-14T11:07:51.284Z,24.10
2019-04-14T11:08:51.296Z,22.60
2019-04-14T11:09:53.840Z,21.80
2019-04-14T11:10:51.255Z,22.80
2019-04-14T11:11:51.238Z,24.40
2019-04-14T11:12:51.230Z,22.20
2019-04-14T11:13:51.222Z,26.30
2019-04-14T11:14:51.283Z,22.30
2019-04-14T11:15:51.187Z,25.20
2019-04-14T11:16:51.178Z,28.20
2019-04-14T11:17:51.165Z,26.00
2019-04-14T11:18:51.177Z,22.50
2019-04-14T11:19:51.179Z,27.20
2019-04-14T11:20:51.145Z,23.30
2019-04-14T11:21:51.139Z,25.40
2019-04-14T11:23:02.724Z,25.50
2019-04-14T11:23:52.107Z,26.70
2019-04-14T11:24:51.123Z,26.30
2019-04-14T11:25:51.078Z,27.10
2019-04-14T11:26:51.073Z,28.90
2019-04-14T11:27:51.064Z,23.40
2019-04-14T11:28:51.063Z,28.00
2019-04-14T11:29:53.956Z,27.60
2019-04-14T11:30:51.057Z,28.10
2019-04-14T11:31:51.015Z,24.50
2019-04-14T11:32:51.026Z,27.00
2019-04-14T11:33:50.989Z,26.10
2019-04-14T11:34:50.988Z,26.10
2019-04-14T11:35:51.006Z,25.50
2019-04-14T11:36:50.971Z,22.40
2019-04-14T11:37:50.960Z,20.60
2019-04-14T11:38:50.960Z,24.20
2019-04-14T11:39:50.943Z,29.90
2019-04-14T11:40:51.944Z,26.60
2019-04-14T11:41:50.923Z,25.70
2019-04-14T11:42:52.436Z,24.40
2019-04-14T11:43:50.884Z,22.20
2019-04-14T11:44:50.893Z,24.30
2019-04-14T11:45:50.889Z,22.80
2019-04-14T11:46:50.874Z,24.00
2019-04-14T11:47:50.842Z,24.70
2019-04-14T11:48:50.844Z,23.90
2019-04-14T11:49:50.818Z,23.10
2019-04-14T11:50:50.859Z,25.30
2019-04-14T11:51:55.395Z,22.90
2019-04-14T11:52:51.804Z,27.80
2019-04-14T11:53:50.776Z,23.60
2019-04-14T11:54:50.765Z,25.50
2019-04-14T11:55:50.786Z,23.10
2019-04-14T11:56:50.757Z,23.80
2019-04-14T11:57:50.756Z,23.90
2019-04-14T11:58:50.725Z,22.20
2019-04-14T11:59:50.738Z,24.00
2019-04-14T12:00:50.716Z,26.50
2019-04-14T12:01:50.709Z,24.90
2019-04-14T12:02:50.681Z,24.50
2019-04-14T12:03:50.671Z,26.20
2019-04-14T12:04:50.672Z,23.70
2019-04-14T12:05:50.676Z,24.20
2019-04-14T12:06:50.674Z,23.90
2019-04-14T12:07:50.628Z,22.90
2019-04-14T12:08:50.620Z,25.80
2019-04-14T12:09:50.598Z,26.30
2019-04-14T12:10:50.600Z,21.80
2019-04-14T12:11:50.611Z,23.60
2019-04-14T12:12:50.584Z,22.00
2019-04-14T12:13:50.565Z,22.20
2019-04-14T12:14:50.546Z,21.00
2019-04-14T12:15:50.536Z,23.40
2019-04-14T12:16:50.550Z,22.40
2019-04-14T12:17:50.514Z,23.60
2019-04-14T12:18:50.509Z,21.50
2019-04-14T12:19:50.491Z,24.30
2019-04-14T12:20:50.499Z,21.50
2019-04-14T12:21:50.505Z,23.40
2019-04-14T12:22:50.497Z,24.00
2019-04-14T12:23:50.456Z,20.70
2019-04-14T12:24:50.446Z,20.50
2019-04-14T12:25:50.429Z,22.00
2019-04-14T12:26:50.446Z,21.10
2019-04-14T12:27:51.309Z,22.10
2019-04-14T12:28:51.492Z,21.90
2019-04-14T12:29:50.377Z,21.30
2019-04-14T12:30:51.159Z,20.80
2019-04-14T12:31:50.952Z,21.30
2019-04-14T12:32:50.374Z,21.50
2019-04-14T12:33:50.339Z,21.10
2019-04-14T12:34:50.339Z,22.70
2019-04-14T12:35:50.325Z,18.50
2019-04-14T12:36:50.342Z,22.90
2019-04-14T12:37:50.295Z,21.80
2019-04-14T12:38:50.301Z,24.20
2019-04-14T12:39:50.282Z,24.50
2019-04-14T12:40:50.278Z,21.70
2019-04-14T12:41:50.284Z,20.70
2019-04-14T12:42:50.242Z,21.50
2019-04-14T12:43:50.231Z,19.90
2019-04-14T12:44:50.225Z,23.30
2019-04-14T12:45:50.211Z,20.90
2019-04-14T12:46:50.196Z,19.30
2019-04-14T12:47:50.212Z,25.80
2019-04-14T12:48:50.196Z,21.10
2019-04-14T12:49:50.164Z,25.20
2019-04-14T12:50:50.159Z,23.20
2019-04-14T12:51:50.147Z,25.30
2019-04-14T12:52:50.180Z,22.10
2019-04-14T12:53:50.118Z,18.60
2019-04-14T12:55:51.145Z,18.40
2019-04-14T12:56:50.104Z,17.40
2019-04-14T12:57:50.121Z,21.10
2019-04-14T12:58:50.075Z,18.90
2019-04-14T12:59:50.055Z,20.50
2019-04-14T13:00:50.065Z,19.10
2019-04-14T13:01:50.042Z,21.10
2019-04-14T13:02:50.075Z,19.90
2019-04-14T13:03:50.012Z,18.80
2019-04-14T13:04:50.003Z,18.50
2019-04-14T13:05:49.992Z,19.10
2019-04-14T13:06:49.982Z,17.60
2019-04-14T13:07:49.999Z,20.20
2019-04-14T13:08:49.978Z,20.90
2019-04-14T13:09:49.949Z,20.20
2019-04-14T13:10:49.943Z,18.00
2019-04-14T13:11:49.932Z,18.90
2019-04-14T13:12:50.043Z,18.80
2019-04-14T13:13:49.923Z,17.80
2019-04-14T13:14:49.906Z,21.10
2019-04-14T13:15:49.883Z,18.30
2019-04-14T13:16:49.876Z,17.80
2019-04-14T13:17:49.891Z,19.50
2019-04-14T13:18:49.851Z,19.70
2019-04-14T13:19:49.857Z,20.70
2019-04-14T13:20:49.835Z,22.60
2019-04-14T13:21:49.808Z,19.40
2019-04-14T13:22:49.806Z,23.20
2019-04-14T13:23:49.819Z,20.10
2019-04-14T13:24:49.790Z,26.30